sensor_id;sensor_type;location;lat;lon;timestamp;P1;durP1;ratioP1;P2;durP2;ratioP2
79670;SDS011;69137;50.878;8.050;2023-04-09T00:00:31;13.75;;;7.80;;
79670;SDS011;69137;50.878;8.050;2023-04-09T00:02:57;15.57;;;8.07;;
79670;SDS011;69137;50.878;8.050;2023-04-09T00:05:22;12.65;;;6.68;;
79670;SDS011;69137;50.878;8.050;2023-04-09T00:07:48;13.30;;;7.95;;
79670;SDS011;69137;50.878;8.050;2023-04-09T00:10:16;14.90;;;8.60;;
79670;SDS011;69137;50.878;8.050;2023-04-09T00:12:42;15.02;;;9.00;;
79670;SDS011;69137;50.878;8.050;2023-04-09T00:15:07;14.70;;;9.10;;
79670;SDS011;69137;50.878;8.050;2023-04-09T00:17:33;13.45;;;8.57;;
79670;SDS011;69137;50.878;8.050;2023-04-09T00:19:58;16.63;;;10.00;;
79670;SDS011;69137;50.878;8.050;2023-04-09T00:22:24;12.55;;;8.23;;
79670;SDS011;69137;50.878;8.050;2023-04-09T00:24:49;14.45;;;9.32;;
79670;SDS011;69137;50.878;8.050;2023-04-09T00:27:15;13.80;;;8.63;;
79670;SDS011;69137;50.878;8.050;2023-04-09T00:29:40;14.80;;;7.88;;
79670;SDS011;69137;50.878;8.050;2023-04-09T00:32:06;16.25;;;9.95;;
79670;SDS011;69137;50.878;8.050;2023-04-09T00:34:31;16.08;;;11.32;;
79670;SDS011;69137;50.878;8.050;2023-04-09T00:36:57;14.90;;;9.57;;
79670;SDS011;69137;50.878;8.050;2023-04-09T00:39:22;11.90;;;7.38;;
79670;SDS011;69137;50.878;8.050;2023-04-09T00:41:47;14.45;;;9.52;;
79670;SDS011;69137;50.878;8.050;2023-04-09T00:44:13;14.98;;;8.30;;
79670;SDS011;69137;50.878;8.050;2023-04-09T00:46:38;13.05;;;7.43;;
79670;SDS011;69137;50.878;8.050;2023-04-09T00:49:04;13.27;;;8.13;;
79670;SDS011;69137;50.878;8.050;2023-04-09T00:51:30;13.88;;;8.00;;
79670;SDS011;69137;50.878;8.050;2023-04-09T00:53:55;14.20;;;8.30;;
79670;SDS011;69137;50.878;8.050;2023-04-09T00:56:23;14.55;;;8.98;;
79670;SDS011;69137;50.878;8.050;2023-04-09T00:58:49;18.65;;;11.05;;
79670;SDS011;69137;50.878;8.050;2023-04-09T01:01:14;18.92;;;11.52;;
79670;SDS011;69137;50.878;8.050;2023-04-09T01:03:40;23.40;;;11.70;;
79670;SDS011;69137;50.878;8.050;2023-04-09T01:06:11;21.90;;;12.13;;
79670;SDS011;69137;50.878;8.050;2023-04-09T01:12:29;22.92;;;10.10;;
79670;SDS011;69137;50.878;8.050;2023-04-09T01:14:43;17.13;;;9.05;;
79670;SDS011;69137;50.878;8.050;2023-04-09T01:17:20;20.25;;;10.65;;
79670;SDS011;69137;50.878;8.050;2023-04-09T01:19:58;23.38;;;11.13;;
79670;SDS011;69137;50.878;8.050;2023-04-09T01:28:18;19.50;;;10.07;;
79670;SDS011;69137;50.878;8.050;2023-04-09T01:30:43;16.50;;;9.23;;
79670;SDS011;69137;50.878;8.050;2023-04-09T01:33:13;12.05;;;7.80;;
79670;SDS011;69137;50.878;8.050;2023-04-09T01:35:41;16.15;;;8.57;;
79670;SDS011;69137;50.878;8.050;2023-04-09T01:38:07;12.98;;;7.70;;
79670;SDS011;69137;50.878;8.050;2023-04-09T01:40:34;12.57;;;8.30;;
79670;SDS011;69137;50.878;8.050;2023-04-09T01:43:00;12.05;;;8.25;;
79670;SDS011;69137;50.878;8.050;2023-04-09T01:45:27;12.82;;;8.40;;
79670;SDS011;69137;50.878;8.050;2023-04-09T01:47:53;12.63;;;8.52;;
79670;SDS011;69137;50.878;8.050;2023-04-09T01:50:20;14.93;;;7.72;;
79670;SDS011;69137;50.878;8.050;2023-04-09T01:52:46;16.90;;;8.43;;
79670;SDS011;69137;50.878;8.050;2023-04-09T01:55:12;13.10;;;7.40;;
79670;SDS011;69137;50.878;8.050;2023-04-09T01:57:37;14.55;;;7.70;;
79670;SDS011;69137;50.878;8.050;2023-04-09T02:00:03;14.23;;;8.63;;
79670;SDS011;69137;50.878;8.050;2023-04-09T02:02:40;12.80;;;7.15;;
79670;SDS011;69137;50.878;8.050;2023-04-09T02:05:09;16.30;;;10.05;;
79670;SDS011;69137;50.878;8.050;2023-04-09T02:07:41;15.30;;;8.65;;
79670;SDS011;69137;50.878;8.050;2023-04-09T02:10:09;14.75;;;8.55;;
79670;SDS011;69137;50.878;8.050;2023-04-09T02:12:37;15.27;;;8.82;;
79670;SDS011;69137;50.878;8.050;2023-04-09T02:15:04;14.63;;;7.72;;
79670;SDS011;69137;50.878;8.050;2023-04-09T02:17:31;13.93;;;8.70;;
79670;SDS011;69137;50.878;8.050;2023-04-09T02:19:57;12.18;;;7.00;;
79670;SDS011;69137;50.878;8.050;2023-04-09T02:22:22;13.15;;;7.93;;
79670;SDS011;69137;50.878;8.050;2023-04-09T02:24:48;16.73;;;7.72;;
79670;SDS011;69137;50.878;8.050;2023-04-09T02:27:13;13.00;;;7.80;;
79670;SDS011;69137;50.878;8.050;2023-04-09T02:29:39;13.43;;;8.38;;
79670;SDS011;69137;50.878;8.050;2023-04-09T02:32:05;10.68;;;7.22;;
79670;SDS011;69137;50.878;8.050;2023-04-09T02:34:31;12.55;;;7.13;;
79670;SDS011;69137;50.878;8.050;2023-04-09T02:36:56;12.50;;;7.53;;
79670;SDS011;69137;50.878;8.050;2023-04-09T02:39:22;11.73;;;7.93;;
79670;SDS011;69137;50.878;8.050;2023-04-09T02:41:47;14.95;;;9.05;;
79670;SDS011;69137;50.878;8.050;2023-04-09T02:44:13;12.23;;;6.28;;
79670;SDS011;69137;50.878;8.050;2023-04-09T02:46:39;12.93;;;7.45;;
79670;SDS011;69137;50.878;8.050;2023-04-09T02:49:05;15.88;;;8.75;;
79670;SDS011;69137;50.878;8.050;2023-04-09T02:51:32;11.57;;;6.75;;
79670;SDS011;69137;50.878;8.050;2023-04-09T02:53:59;14.32;;;8.35;;
79670;SDS011;69137;50.878;8.050;2023-04-09T02:56:24;13.68;;;8.77;;
79670;SDS011;69137;50.878;8.050;2023-04-09T02:58:50;14.23;;;7.68;;
79670;SDS011;69137;50.878;8.050;2023-04-09T03:01:17;12.25;;;7.30;;
79670;SDS011;69137;50.878;8.050;2023-04-09T03:03:44;12.80;;;7.93;;
79670;SDS011;69137;50.878;8.050;2023-04-09T03:06:09;13.20;;;8.00;;
79670;SDS011;69137;50.878;8.050;2023-04-09T03:08:35;12.65;;;7.28;;
79670;SDS011;69137;50.878;8.050;2023-04-09T03:11:00;15.10;;;8.27;;
79670;SDS011;69137;50.878;8.050;2023-04-09T03:13:26;14.32;;;7.80;;
79670;SDS011;69137;50.878;8.050;2023-04-09T03:15:52;14.88;;;8.35;;
79670;SDS011;69137;50.878;8.050;2023-04-09T03:18:17;14.15;;;7.38;;
79670;SDS011;69137;50.878;8.050;2023-04-09T03:20:43;14.55;;;8.13;;
79670;SDS011;69137;50.878;8.050;2023-04-09T03:23:09;12.80;;;7.30;;
79670;SDS011;69137;50.878;8.050;2023-04-09T03:25:35;15.85;;;7.93;;
79670;SDS011;69137;50.878;8.050;2023-04-09T03:28:00;12.23;;;7.63;;
79670;SDS011;69137;50.878;8.050;2023-04-09T03:30:25;15.45;;;8.52;;
79670;SDS011;69137;50.878;8.050;2023-04-09T03:32:51;12.15;;;7.68;;
79670;SDS011;69137;50.878;8.050;2023-04-09T03:35:16;13.80;;;7.55;;
79670;SDS011;69137;50.878;8.050;2023-04-09T03:37:42;14.57;;;8.10;;
79670;SDS011;69137;50.878;8.050;2023-04-09T03:40:07;13.23;;;7.13;;
79670;SDS011;69137;50.878;8.050;2023-04-09T03:42:33;11.70;;;6.93;;
79670;SDS011;69137;50.878;8.050;2023-04-09T03:44:59;15.38;;;7.15;;
79670;SDS011;69137;50.878;8.050;2023-04-09T03:47:25;12.70;;;6.82;;
79670;SDS011;69137;50.878;8.050;2023-04-09T03:49:50;13.68;;;8.70;;
79670;SDS011;69137;50.878;8.050;2023-04-09T03:52:16;15.95;;;7.55;;
79670;SDS011;69137;50.878;8.050;2023-04-09T03:54:41;11.38;;;6.72;;
79670;SDS011;69137;50.878;8.050;2023-04-09T03:57:07;14.70;;;7.90;;
79670;SDS011;69137;50.878;8.050;2023-04-09T03:59:33;12.00;;;6.93;;
79670;SDS011;69137;50.878;8.050;2023-04-09T04:01:58;14.10;;;8.10;;
79670;SDS011;69137;50.878;8.050;2023-04-09T04:04:23;12.80;;;7.60;;
79670;SDS011;69137;50.878;8.050;2023-04-09T04:06:49;14.65;;;7.72;;
79670;SDS011;69137;50.878;8.050;2023-04-09T04:09:14;13.98;;;8.48;;
79670;SDS011;69137;50.878;8.050;2023-04-09T04:11:40;13.63;;;7.93;;
79670;SDS011;69137;50.878;8.050;2023-04-09T04:14:05;14.50;;;8.50;;
79670;SDS011;69137;50.878;8.050;2023-04-09T04:16:31;15.60;;;8.55;;
79670;SDS011;69137;50.878;8.050;2023-04-09T04:18:56;14.45;;;7.82;;
79670;SDS011;69137;50.878;8.050;2023-04-09T04:21:22;15.32;;;7.35;;
79670;SDS011;69137;50.878;8.050;2023-04-09T04:23:47;13.50;;;8.18;;
79670;SDS011;69137;50.878;8.050;2023-04-09T04:26:12;13.25;;;8.05;;
79670;SDS011;69137;50.878;8.050;2023-04-09T04:28:38;15.07;;;8.68;;
79670;SDS011;69137;50.878;8.050;2023-04-09T04:31:11;12.95;;;7.55;;
79670;SDS011;69137;50.878;8.050;2023-04-09T04:33:37;14.93;;;8.35;;
79670;SDS011;69137;50.878;8.050;2023-04-09T04:36:13;13.55;;;8.82;;
79670;SDS011;69137;50.878;8.050;2023-04-09T04:38:39;13.10;;;8.48;;
79670;SDS011;69137;50.878;8.050;2023-04-09T04:41:09;11.98;;;6.53;;
79670;SDS011;69137;50.878;8.050;2023-04-09T04:43:35;13.02;;;8.13;;
79670;SDS011;69137;50.878;8.050;2023-04-09T04:46:01;14.80;;;8.00;;
79670;SDS011;69137;50.878;8.050;2023-04-09T04:48:27;14.45;;;8.20;;
79670;SDS011;69137;50.878;8.050;2023-04-09T04:50:56;16.65;;;8.05;;
79670;SDS011;69137;50.878;8.050;2023-04-09T04:53:22;12.98;;;7.22;;
79670;SDS011;69137;50.878;8.050;2023-04-09T04:55:48;13.82;;;8.63;;
79670;SDS011;69137;50.878;8.050;2023-04-09T04:58:13;17.77;;;7.53;;
79670;SDS011;69137;50.878;8.050;2023-04-09T05:00:39;15.70;;;8.43;;
79670;SDS011;69137;50.878;8.050;2023-04-09T05:03:04;15.73;;;8.20;;
79670;SDS011;69137;50.878;8.050;2023-04-09T05:05:30;14.38;;;7.20;;
79670;SDS011;69137;50.878;8.050;2023-04-09T05:07:55;14.40;;;7.95;;
79670;SDS011;69137;50.878;8.050;2023-04-09T05:10:21;14.15;;;7.43;;
79670;SDS011;69137;50.878;8.050;2023-04-09T05:12:46;13.68;;;7.85;;
79670;SDS011;69137;50.878;8.050;2023-04-09T05:15:12;14.10;;;8.60;;
79670;SDS011;69137;50.878;8.050;2023-04-09T05:17:38;14.82;;;8.13;;
79670;SDS011;69137;50.878;8.050;2023-04-09T05:22:32;13.65;;;7.22;;
79670;SDS011;69137;50.878;8.050;2023-04-09T05:24:57;13.10;;;7.43;;
79670;SDS011;69137;50.878;8.050;2023-04-09T05:27:23;12.85;;;7.32;;
79670;SDS011;69137;50.878;8.050;2023-04-09T05:29:50;17.10;;;8.38;;
79670;SDS011;69137;50.878;8.050;2023-04-09T05:32:15;13.98;;;7.82;;
79670;SDS011;69137;50.878;8.050;2023-04-09T05:34:41;16.20;;;8.52;;
79670;SDS011;69137;50.878;8.050;2023-04-09T05:37:06;14.38;;;8.32;;
79670;SDS011;69137;50.878;8.050;2023-04-09T05:39:31;14.02;;;7.80;;
79670;SDS011;69137;50.878;8.050;2023-04-09T05:41:57;14.48;;;7.88;;
79670;SDS011;69137;50.878;8.050;2023-04-09T05:44:22;17.25;;;8.68;;
79670;SDS011;69137;50.878;8.050;2023-04-09T05:46:48;13.60;;;7.72;;
79670;SDS011;69137;50.878;8.050;2023-04-09T05:49:13;13.77;;;7.82;;
79670;SDS011;69137;50.878;8.050;2023-04-09T05:51:38;15.85;;;8.60;;
79670;SDS011;69137;50.878;8.050;2023-04-09T05:54:04;17.30;;;8.50;;
79670;SDS011;69137;50.878;8.050;2023-04-09T05:56:29;18.63;;;8.38;;
79670;SDS011;69137;50.878;8.050;2023-04-09T05:58:55;14.40;;;8.15;;
79670;SDS011;69137;50.878;8.050;2023-04-09T06:01:20;15.25;;;7.75;;
79670;SDS011;69137;50.878;8.050;2023-04-09T06:03:46;16.27;;;8.80;;
79670;SDS011;69137;50.878;8.050;2023-04-09T06:06:11;19.55;;;9.60;;
79670;SDS011;69137;50.878;8.050;2023-04-09T06:08:37;15.13;;;8.70;;
79670;SDS011;69137;50.878;8.050;2023-04-09T06:11:03;17.17;;;9.77;;
79670;SDS011;69137;50.878;8.050;2023-04-09T06:13:32;16.30;;;9.15;;
79670;SDS011;69137;50.878;8.050;2023-04-09T06:15:57;14.02;;;8.90;;
79670;SDS011;69137;50.878;8.050;2023-04-09T06:18:23;12.10;;;7.88;;
79670;SDS011;69137;50.878;8.050;2023-04-09T06:20:48;15.50;;;9.18;;
79670;SDS011;69137;50.878;8.050;2023-04-09T06:23:14;16.65;;;8.57;;
79670;SDS011;69137;50.878;8.050;2023-04-09T06:25:39;15.65;;;9.23;;
79670;SDS011;69137;50.878;8.050;2023-04-09T06:28:05;15.52;;;8.68;;
79670;SDS011;69137;50.878;8.050;2023-04-09T06:30:30;13.45;;;7.78;;
79670;SDS011;69137;50.878;8.050;2023-04-09T06:32:56;14.23;;;8.38;;
79670;SDS011;69137;50.878;8.050;2023-04-09T06:35:21;18.02;;;9.20;;
79670;SDS011;69137;50.878;8.050;2023-04-09T06:37:47;14.73;;;8.50;;
79670;SDS011;69137;50.878;8.050;2023-04-09T06:40:12;14.73;;;9.73;;
79670;SDS011;69137;50.878;8.050;2023-04-09T06:42:38;15.82;;;8.38;;
79670;SDS011;69137;50.878;8.050;2023-04-09T06:45:04;13.52;;;8.73;;
79670;SDS011;69137;50.878;8.050;2023-04-09T06:47:32;15.77;;;9.05;;
79670;SDS011;69137;50.878;8.050;2023-04-09T06:50:01;13.85;;;9.18;;
79670;SDS011;69137;50.878;8.050;2023-04-09T06:52:26;18.90;;;9.43;;
79670;SDS011;69137;50.878;8.050;2023-04-09T06:54:52;15.15;;;9.23;;
79670;SDS011;69137;50.878;8.050;2023-04-09T06:57:17;15.82;;;10.35;;
79670;SDS011;69137;50.878;8.050;2023-04-09T06:59:43;13.60;;;9.40;;
79670;SDS011;69137;50.878;8.050;2023-04-09T07:02:08;13.40;;;8.55;;
79670;SDS011;69137;50.878;8.050;2023-04-09T07:04:33;14.60;;;9.48;;
79670;SDS011;69137;50.878;8.050;2023-04-09T07:06:59;15.05;;;9.32;;
79670;SDS011;69137;50.878;8.050;2023-04-09T07:09:25;13.43;;;8.70;;
79670;SDS011;69137;50.878;8.050;2023-04-09T07:11:50;16.20;;;10.38;;
79670;SDS011;69137;50.878;8.050;2023-04-09T07:14:15;18.30;;;8.82;;
79670;SDS011;69137;50.878;8.050;2023-04-09T07:16:41;16.13;;;10.13;;
79670;SDS011;69137;50.878;8.050;2023-04-09T07:19:07;18.58;;;11.02;;
79670;SDS011;69137;50.878;8.050;2023-04-09T07:21:32;18.42;;;11.23;;
79670;SDS011;69137;50.878;8.050;2023-04-09T07:23:57;19.10;;;11.50;;
79670;SDS011;69137;50.878;8.050;2023-04-09T07:26:23;19.10;;;12.48;;
79670;SDS011;69137;50.878;8.050;2023-04-09T07:28:48;21.20;;;11.30;;
79670;SDS011;69137;50.878;8.050;2023-04-09T07:31:14;20.90;;;12.13;;
79670;SDS011;69137;50.878;8.050;2023-04-09T07:33:40;24.63;;;13.30;;
79670;SDS011;69137;50.878;8.050;2023-04-09T07:36:05;21.92;;;12.30;;
79670;SDS011;69137;50.878;8.050;2023-04-09T07:38:31;21.42;;;12.15;;
79670;SDS011;69137;50.878;8.050;2023-04-09T07:40:57;22.05;;;13.32;;
79670;SDS011;69137;50.878;8.050;2023-04-09T07:43:22;21.90;;;12.50;;
79670;SDS011;69137;50.878;8.050;2023-04-09T07:45:48;18.02;;;11.60;;
79670;SDS011;69137;50.878;8.050;2023-04-09T07:48:15;23.88;;;13.20;;
79670;SDS011;69137;50.878;8.050;2023-04-09T07:50:41;21.95;;;13.82;;
79670;SDS011;69137;50.878;8.050;2023-04-09T07:53:06;19.77;;;12.60;;
79670;SDS011;69137;50.878;8.050;2023-04-09T07:55:32;22.15;;;14.45;;
79670;SDS011;69137;50.878;8.050;2023-04-09T07:57:57;22.58;;;13.75;;
79670;SDS011;69137;50.878;8.050;2023-04-09T08:00:23;20.90;;;11.45;;
79670;SDS011;69137;50.878;8.050;2023-04-09T08:02:49;19.98;;;13.25;;
79670;SDS011;69137;50.878;8.050;2023-04-09T08:05:14;24.27;;;13.65;;
79670;SDS011;69137;50.878;8.050;2023-04-09T08:07:40;20.30;;;12.23;;
79670;SDS011;69137;50.878;8.050;2023-04-09T08:10:06;20.58;;;12.25;;
79670;SDS011;69137;50.878;8.050;2023-04-09T08:12:32;21.25;;;12.07;;
79670;SDS011;69137;50.878;8.050;2023-04-09T08:14:58;20.08;;;12.85;;
79670;SDS011;69137;50.878;8.050;2023-04-09T08:17:23;21.23;;;13.30;;
79670;SDS011;69137;50.878;8.050;2023-04-09T08:19:48;18.20;;;12.15;;
79670;SDS011;69137;50.878;8.050;2023-04-09T08:22:14;20.98;;;11.95;;
79670;SDS011;69137;50.878;8.050;2023-04-09T08:24:40;21.25;;;12.70;;
79670;SDS011;69137;50.878;8.050;2023-04-09T08:27:07;20.92;;;12.48;;
79670;SDS011;69137;50.878;8.050;2023-04-09T08:29:33;21.05;;;13.32;;
79670;SDS011;69137;50.878;8.050;2023-04-09T08:31:59;18.80;;;11.75;;
79670;SDS011;69137;50.878;8.050;2023-04-09T08:34:24;17.88;;;11.90;;
79670;SDS011;69137;50.878;8.050;2023-04-09T08:36:49;19.38;;;11.63;;
79670;SDS011;69137;50.878;8.050;2023-04-09T08:39:15;19.10;;;12.50;;
79670;SDS011;69137;50.878;8.050;2023-04-09T08:41:44;18.25;;;10.20;;
79670;SDS011;69137;50.878;8.050;2023-04-09T08:44:09;16.65;;;10.70;;
79670;SDS011;69137;50.878;8.050;2023-04-09T08:46:35;16.55;;;11.18;;
79670;SDS011;69137;50.878;8.050;2023-04-09T08:49:01;19.58;;;10.85;;
79670;SDS011;69137;50.878;8.050;2023-04-09T08:51:27;14.75;;;10.30;;
79670;SDS011;69137;50.878;8.050;2023-04-09T08:53:59;15.15;;;9.63;;
79670;SDS011;69137;50.878;8.050;2023-04-09T08:56:25;17.83;;;11.30;;
79670;SDS011;69137;50.878;8.050;2023-04-09T08:58:51;13.02;;;9.35;;
79670;SDS011;69137;50.878;8.050;2023-04-09T09:01:27;17.33;;;11.57;;
79670;SDS011;69137;50.878;8.050;2023-04-09T09:04:04;14.75;;;8.45;;
79670;SDS011;69137;50.878;8.050;2023-04-09T09:06:35;13.48;;;8.55;;
79670;SDS011;69137;50.878;8.050;2023-04-09T09:11:36;14.48;;;8.68;;
79670;SDS011;69137;50.878;8.050;2023-04-09T09:16:30;12.77;;;8.48;;
79670;SDS011;69137;50.878;8.050;2023-04-09T09:18:58;10.48;;;7.05;;
79670;SDS011;69137;50.878;8.050;2023-04-09T09:21:25;12.98;;;8.32;;
79670;SDS011;69137;50.878;8.050;2023-04-09T09:23:52;11.95;;;8.23;;
79670;SDS011;69137;50.878;8.050;2023-04-09T09:26:19;12.75;;;8.38;;
79670;SDS011;69137;50.878;8.050;2023-04-09T09:28:47;12.85;;;8.40;;
79670;SDS011;69137;50.878;8.050;2023-04-09T09:31:13;9.45;;;7.03;;
79670;SDS011;69137;50.878;8.050;2023-04-09T09:33:41;13.70;;;7.80;;
79670;SDS011;69137;50.878;8.050;2023-04-09T09:36:06;11.82;;;7.95;;
79670;SDS011;69137;50.878;8.050;2023-04-09T09:38:50;10.88;;;7.45;;
79670;SDS011;69137;50.878;8.050;2023-04-09T09:41:17;11.18;;;7.65;;
79670;SDS011;69137;50.878;8.050;2023-04-09T09:43:44;11.75;;;7.80;;
79670;SDS011;69137;50.878;8.050;2023-04-09T09:46:10;11.07;;;8.20;;
79670;SDS011;69137;50.878;8.050;2023-04-09T09:48:36;12.23;;;7.88;;
79670;SDS011;69137;50.878;8.050;2023-04-09T09:51:02;18.08;;;9.77;;
79670;SDS011;69137;50.878;8.050;2023-04-09T09:53:34;12.93;;;8.10;;
79670;SDS011;69137;50.878;8.050;2023-04-09T09:56:00;14.85;;;9.18;;
79670;SDS011;69137;50.878;8.050;2023-04-09T09:58:36;12.07;;;7.18;;
79670;SDS011;69137;50.878;8.050;2023-04-09T10:01:13;11.93;;;6.80;;
79670;SDS011;69137;50.878;8.050;2023-04-09T10:03:42;11.45;;;7.38;;
79670;SDS011;69137;50.878;8.050;2023-04-09T10:06:10;10.18;;;7.43;;
79670;SDS011;69137;50.878;8.050;2023-04-09T10:08:37;10.80;;;7.43;;
79670;SDS011;69137;50.878;8.050;2023-04-09T10:11:05;12.05;;;7.93;;
79670;SDS011;69137;50.878;8.050;2023-04-09T10:13:39;15.40;;;7.75;;
79670;SDS011;69137;50.878;8.050;2023-04-09T10:16:09;9.95;;;7.32;;
79670;SDS011;69137;50.878;8.050;2023-04-09T10:18:35;12.52;;;7.70;;
79670;SDS011;69137;50.878;8.050;2023-04-09T10:21:04;9.40;;;6.95;;
79670;SDS011;69137;50.878;8.050;2023-04-09T10:23:37;9.15;;;6.22;;
79670;SDS011;69137;50.878;8.050;2023-04-09T10:26:04;10.57;;;7.15;;
79670;SDS011;69137;50.878;8.050;2023-04-09T10:28:30;8.98;;;6.00;;
79670;SDS011;69137;50.878;8.050;2023-04-09T10:30:56;9.15;;;6.30;;
79670;SDS011;69137;50.878;8.050;2023-04-09T10:33:23;8.32;;;5.43;;
79670;SDS011;69137;50.878;8.050;2023-04-09T10:35:51;8.00;;;5.68;;
79670;SDS011;69137;50.878;8.050;2023-04-09T10:38:31;8.60;;;6.05;;
79670;SDS011;69137;50.878;8.050;2023-04-09T10:43:33;8.52;;;5.82;;
79670;SDS011;69137;50.878;8.050;2023-04-09T10:46:00;8.90;;;5.60;;
79670;SDS011;69137;50.878;8.050;2023-04-09T10:48:31;9.48;;;6.65;;
79670;SDS011;69137;50.878;8.050;2023-04-09T10:50:57;7.32;;;5.47;;
79670;SDS011;69137;50.878;8.050;2023-04-09T10:53:23;6.97;;;5.22;;
79670;SDS011;69137;50.878;8.050;2023-04-09T10:55:50;8.32;;;5.25;;
79670;SDS011;69137;50.878;8.050;2023-04-09T10:58:18;7.60;;;5.95;;
79670;SDS011;69137;50.878;8.050;2023-04-09T11:00:47;9.68;;;5.45;;
79670;SDS011;69137;50.878;8.050;2023-04-09T11:03:21;9.25;;;6.13;;
79670;SDS011;69137;50.878;8.050;2023-04-09T11:06:03;9.13;;;5.97;;
79670;SDS011;69137;50.878;8.050;2023-04-09T11:08:33;8.68;;;6.40;;
79670;SDS011;69137;50.878;8.050;2023-04-09T11:10:59;9.63;;;6.43;;
79670;SDS011;69137;50.878;8.050;2023-04-09T11:13:26;9.77;;;5.78;;
79670;SDS011;69137;50.878;8.050;2023-04-09T11:15:53;10.60;;;5.95;;
79670;SDS011;69137;50.878;8.050;2023-04-09T11:18:27;7.07;;;5.50;;
79670;SDS011;69137;50.878;8.050;2023-04-09T11:20:54;8.43;;;5.43;;
79670;SDS011;69137;50.878;8.050;2023-04-09T11:23:20;8.10;;;5.72;;
79670;SDS011;69137;50.878;8.050;2023-04-09T11:25:49;10.32;;;6.25;;
79670;SDS011;69137;50.878;8.050;2023-04-09T11:28:15;8.85;;;6.25;;
79670;SDS011;69137;50.878;8.050;2023-04-09T11:30:41;8.88;;;5.43;;
79670;SDS011;69137;50.878;8.050;2023-04-09T11:33:07;7.72;;;5.55;;
79670;SDS011;69137;50.878;8.050;2023-04-09T11:35:33;8.45;;;5.57;;
79670;SDS011;69137;50.878;8.050;2023-04-09T11:38:00;6.05;;;4.35;;
79670;SDS011;69137;50.878;8.050;2023-04-09T11:40:30;8.55;;;5.35;;
79670;SDS011;69137;50.878;8.050;2023-04-09T11:42:55;9.43;;;6.13;;
79670;SDS011;69137;50.878;8.050;2023-04-09T11:45:22;8.68;;;5.22;;
79670;SDS011;69137;50.878;8.050;2023-04-09T11:47:49;8.55;;;5.75;;
79670;SDS011;69137;50.878;8.050;2023-04-09T11:50:15;8.10;;;5.57;;
79670;SDS011;69137;50.878;8.050;2023-04-09T11:52:42;7.10;;;4.90;;
79670;SDS011;69137;50.878;8.050;2023-04-09T11:55:09;7.70;;;5.15;;
79670;SDS011;69137;50.878;8.050;2023-04-09T11:57:38;7.63;;;5.60;;
79670;SDS011;69137;50.878;8.050;2023-04-09T12:00:07;8.50;;;5.78;;
79670;SDS011;69137;50.878;8.050;2023-04-09T12:02:36;9.32;;;6.00;;
79670;SDS011;69137;50.878;8.050;2023-04-09T12:05:03;7.32;;;4.63;;
79670;SDS011;69137;50.878;8.050;2023-04-09T12:07:35;6.93;;;4.50;;
79670;SDS011;69137;50.878;8.050;2023-04-09T12:10:08;7.05;;;5.32;;
79670;SDS011;69137;50.878;8.050;2023-04-09T12:15:23;8.45;;;5.22;;
79670;SDS011;69137;50.878;8.050;2023-04-09T12:20:31;9.80;;;4.88;;
79670;SDS011;69137;50.878;8.050;2023-04-09T12:22:58;6.93;;;4.95;;
79670;SDS011;69137;50.878;8.050;2023-04-09T12:25:25;7.80;;;4.63;;
79670;SDS011;69137;50.878;8.050;2023-04-09T12:27:51;7.20;;;5.18;;
79670;SDS011;69137;50.878;8.050;2023-04-09T12:30:18;6.40;;;4.45;;
79670;SDS011;69137;50.878;8.050;2023-04-09T12:32:44;8.02;;;5.32;;
79670;SDS011;69137;50.878;8.050;2023-04-09T12:35:10;10.73;;;5.40;;
79670;SDS011;69137;50.878;8.050;2023-04-09T12:37:36;8.75;;;4.72;;
79670;SDS011;69137;50.878;8.050;2023-04-09T12:40:01;6.20;;;4.47;;
79670;SDS011;69137;50.878;8.050;2023-04-09T12:42:27;6.95;;;4.35;;
79670;SDS011;69137;50.878;8.050;2023-04-09T12:44:53;5.25;;;3.85;;
79670;SDS011;69137;50.878;8.050;2023-04-09T12:47:18;6.70;;;4.82;;
79670;SDS011;69137;50.878;8.050;2023-04-09T12:49:44;8.38;;;4.85;;
79670;SDS011;69137;50.878;8.050;2023-04-09T12:52:11;5.75;;;4.38;;
79670;SDS011;69137;50.878;8.050;2023-04-09T12:54:36;5.32;;;4.35;;
79670;SDS011;69137;50.878;8.050;2023-04-09T12:57:04;6.32;;;4.75;;
79670;SDS011;69137;50.878;8.050;2023-04-09T12:59:30;6.03;;;4.35;;
79670;SDS011;69137;50.878;8.050;2023-04-09T13:01:55;6.45;;;4.40;;
79670;SDS011;69137;50.878;8.050;2023-04-09T13:04:20;6.85;;;4.78;;
79670;SDS011;69137;50.878;8.050;2023-04-09T13:06:46;6.93;;;4.88;;
79670;SDS011;69137;50.878;8.050;2023-04-09T13:09:12;6.97;;;5.32;;
79670;SDS011;69137;50.878;8.050;2023-04-09T13:11:38;7.43;;;5.10;;
79670;SDS011;69137;50.878;8.050;2023-04-09T13:14:04;6.93;;;4.95;;
79670;SDS011;69137;50.878;8.050;2023-04-09T13:16:30;7.47;;;4.95;;
79670;SDS011;69137;50.878;8.050;2023-04-09T13:18:55;6.95;;;4.95;;
79670;SDS011;69137;50.878;8.050;2023-04-09T13:21:21;7.10;;;4.70;;
79670;SDS011;69137;50.878;8.050;2023-04-09T13:23:46;6.93;;;4.90;;
79670;SDS011;69137;50.878;8.050;2023-04-09T13:26:12;7.53;;;5.07;;
79670;SDS011;69137;50.878;8.050;2023-04-09T13:28:37;6.57;;;4.75;;
79670;SDS011;69137;50.878;8.050;2023-04-09T13:31:04;7.13;;;4.60;;
79670;SDS011;69137;50.878;8.050;2023-04-09T13:33:29;8.18;;;5.03;;
79670;SDS011;69137;50.878;8.050;2023-04-09T13:35:55;7.40;;;4.97;;
79670;SDS011;69137;50.878;8.050;2023-04-09T13:38:21;8.32;;;5.07;;
79670;SDS011;69137;50.878;8.050;2023-04-09T13:40:46;7.32;;;4.53;;
79670;SDS011;69137;50.878;8.050;2023-04-09T13:43:12;9.18;;;5.10;;
79670;SDS011;69137;50.878;8.050;2023-04-09T13:45:37;7.10;;;4.63;;
79670;SDS011;69137;50.878;8.050;2023-04-09T13:48:04;6.22;;;4.30;;
79670;SDS011;69137;50.878;8.050;2023-04-09T13:50:30;6.72;;;4.72;;
79670;SDS011;69137;50.878;8.050;2023-04-09T13:52:55;6.43;;;4.22;;
79670;SDS011;69137;50.878;8.050;2023-04-09T13:55:21;6.38;;;4.70;;
79670;SDS011;69137;50.878;8.050;2023-04-09T13:57:46;9.52;;;5.22;;
79670;SDS011;69137;50.878;8.050;2023-04-09T14:00:12;8.07;;;4.63;;
79670;SDS011;69137;50.878;8.050;2023-04-09T14:02:37;8.88;;;5.25;;
79670;SDS011;69137;50.878;8.050;2023-04-09T14:05:03;6.28;;;4.25;;
79670;SDS011;69137;50.878;8.050;2023-04-09T14:07:29;6.60;;;4.53;;
79670;SDS011;69137;50.878;8.050;2023-04-09T14:09:54;7.15;;;4.57;;
79670;SDS011;69137;50.878;8.050;2023-04-09T14:12:20;7.97;;;4.40;;
79670;SDS011;69137;50.878;8.050;2023-04-09T14:14:45;6.68;;;4.47;;
79670;SDS011;69137;50.878;8.050;2023-04-09T14:17:11;6.13;;;3.83;;
79670;SDS011;69137;50.878;8.050;2023-04-09T14:19:36;5.88;;;4.70;;
79670;SDS011;69137;50.878;8.050;2023-04-09T14:22:03;6.70;;;4.97;;
79670;SDS011;69137;50.878;8.050;2023-04-09T14:24:30;8.63;;;4.68;;
79670;SDS011;69137;50.878;8.050;2023-04-09T14:26:55;6.20;;;4.20;;
79670;SDS011;69137;50.878;8.050;2023-04-09T14:29:21;6.75;;;4.25;;
79670;SDS011;69137;50.878;8.050;2023-04-09T14:31:46;6.30;;;4.25;;
79670;SDS011;69137;50.878;8.050;2023-04-09T14:34:11;6.57;;;4.63;;
79670;SDS011;69137;50.878;8.050;2023-04-09T14:36:37;9.52;;;4.85;;
79670;SDS011;69137;50.878;8.050;2023-04-09T14:39:02;5.85;;;4.43;;
79670;SDS011;69137;50.878;8.050;2023-04-09T14:41:28;6.72;;;4.60;;
79670;SDS011;69137;50.878;8.050;2023-04-09T14:43:53;5.90;;;4.03;;
79670;SDS011;69137;50.878;8.050;2023-04-09T14:46:18;6.20;;;4.30;;
79670;SDS011;69137;50.878;8.050;2023-04-09T14:48:44;6.53;;;4.65;;
79670;SDS011;69137;50.878;8.050;2023-04-09T14:51:10;6.47;;;4.60;;
79670;SDS011;69137;50.878;8.050;2023-04-09T14:53:36;5.30;;;4.35;;
79670;SDS011;69137;50.878;8.050;2023-04-09T14:56:01;6.07;;;4.22;;